Time;durP1;ratioP1;P1;durP2;ratioP2;P2;SDS_P1;SDS_P2;PMS_P1;PMS_P2;Temp;Humidity;BMP_temperature;BMP_pressure;BME280_temperature;BME280_humidity;BME280_pressure;Samples;Min_cycle;Max_cycle;Signal;HPM_P1;HPM_P2
2024/04/13 00:00:20;;;;;;;;;;;;;;;;;;1086682;27;19960;-75
2024/04/13 00:00:50;;;;;;;;;;;;;;;;;;1086609;27;19946;-75
2024/04/13 00:01:21;;;;;;;;;;;;;;;;;;1088438;27;19938;-74
2024/04/13 00:01:51;;;;;;;;;;;;;;;;;;1086549;27;20468;-74
2024/04/13 00:02:21;;;;;;;;;;;;;;;;;;1088474;27;19939;-74
2024/04/13 00:02:51;;;;;;;;;;;;;;;;;;1086692;27;19939;-74
2024/04/13 00:03:23;;;;;;;;;;;;;;;;;;1091609;27;19938;-74
2024/04/13 00:03:54;;;;;;;;;;;;;;;;;;1101771;26;19988;-74
2024/04/13 00:04:24;;;;;;;;;;;;;;;;;;1101172;26;20365;-74
2024/04/13 00:04:54;;;;;;;;;;;;;;;;;;1085012;27;19938;-74
2024/04/13 00:05:26;;;;;;;;;;;;;;;;;;1086089;27;19972;-74
2024/04/13 00:05:57;;;;;;;;;;;;;;;;;;1092361;27;20375;-75
2024/04/13 00:06:27;;;;;;;;;;;;;;;;;;1085368;27;19932;-75
2024/04/13 00:06:57;;;;;;;;;;;;;;;;;;1087725;27;19935;-74
2024/04/13 00:07:27;;;;;;;;;;;;;;;;;;1089258;27;19939;-74
2024/04/13 00:07:58;;;;;;;;;;;;;;;;;;1090327;27;19979;-74
2024/04/13 00:08:28;;;;;;;;;;;;;;;;;;1090568;27;19931;-74
2024/04/13 00:08:58;;;;;;;;;;;;;;;;;;1090176;27;19937;-74
2024/04/13 00:09:28;;;;;;;;;;;;;;;;;;1090497;27;19930;-74
2024/04/13 00:09:58;;;;;;;;;;;;;;;;;;1092509;27;19954;-74
2024/04/13 00:10:30;;;;;;;;;;;;;;;;;;1099515;26;20401;-74
2024/04/13 00:11:00;;;;;;;;;;;;;;;;;;1094698;27;19935;-74
2024/04/13 00:11:30;;;;;;;;;;;;;;;;;;1085442;27;19931;-74
2024/04/13 00:12:01;;;;;;;;;;;;;;;;;;1087204;27;19962;-74
2024/04/13 00:12:31;;;;;;;;;;;;;;;;;;1087328;27;20033;-74
2024/04/13 00:13:01;;;;;;;;;;;;;;;;;;1086815;27;20415;-74
2024/04/13 00:13:31;;;;;;;;;;;;;;;;;;1083132;27;19946;-74
2024/04/13 00:14:02;;;;;;;;;;;;;;;;;;1083245;27;19939;-74
2024/04/13 00:14:33;;;;;;;;;;;;;;;;;;1083546;27;20003;-74
2024/04/13 00:15:04;;;;;;;;;;;;;;;;;;1083088;27;20311;-74
2024/04/13 00:15:34;;;;;;;;;;;;;;;;;;1089530;27;19935;-74
2024/04/13 00:16:05;;;;;;;;;;;;;;;;;;1086615;27;19964;-74
2024/04/13 00:16:35;;;;;;;;;;;;;;;;;;1087215;27;19940;-74
2024/04/13 00:17:07;;;;;;;;;;;;;;;;;;1094255;27;19934;-74
2024/04/13 00:17:37;;;;;;;;;;;;;;;;;;1094495;26;20391;-74
2024/04/13 00:18:08;;;;;;;;;;;;;;;;;;1092877;27;19947;-74
2024/04/13 00:18:38;;;;;;;;;;;;;;;;;;1086504;27;20367;-74
2024/04/13 00:19:11;;;;;;;;;;;;;;;;;;1086703;27;19931;-74
2024/04/13 00:19:41;;;;;;;;;;;;;;;;;;1086880;27;19939;-74
2024/04/13 00:20:11;;;;;;;;;;;;;;;;;;1087609;27;19940;-74
2024/04/13 00:20:41;;;;;;;;;;;;;;;;;;1093438;27;19938;-74
2024/04/13 00:21:15;;;;;;;;;;;;;;;;;;1092427;27;19963;-74
2024/04/13 00:21:45;;;;;;;;;;;;;;;;;;1093712;27;19947;-74
2024/04/13 00:22:15;;;;;;;;;;;;;;;;;;1087142;27;19959;-74
2024/04/13 00:22:47;;;;;;;;;;;;;;;;;;1080534;27;19939;-74
2024/04/13 00:23:17;;;;;;;;;;;;;;;;;;1092373;27;19931;-74
2024/04/13 00:23:47;;;;;;;;;;;;;;;;;;1093983;27;20283;-74
2024/04/13 00:24:17;;;;;;;;;;;;;;;;;;1086907;27;20018;-74
2024/04/13 00:24:48;;;;;;;;;;;;;;;;;;1085542;27;19994;-74
2024/04/13 00:25:18;;;;;;;;;;;;;;;;;;1082041;27;19940;-74
2024/04/13 00:25:51;;;;;;;;;;;;;;;;;;1083996;27;19959;-74
2024/04/13 00:26:24;;;;;;;;;;;;;;;;;;1089219;27;19931;-74
2024/04/13 00:26:55;;;;;;;;;;;;;;;;;;1089229;27;19975;-74
2024/04/13 00:27:25;;;;;;;;;;;;;;;;;;1094912;26;19939;-74
2024/04/13 00:27:55;;;;;;;;;;;;;;;;;;1088297;27;19959;-74
2024/04/13 00:28:25;;;;;;;;;;;;;;;;;;1094019;26;19939;-74
2024/04/13 00:28:56;;;;;;;;;;;;;;;;;;1086995;26;20037;-75
2024/04/13 00:29:26;;;;;;;;;;;;;;;;;;1087367;27;19932;-75
2024/04/13 00:29:58;;;;;;;;;;;;;;;;;;1087665;27;19931;-74
2024/04/13 00:30:28;;;;;;;;;;;;;;;;;;1083414;27;19948;-74
2024/04/13 00:30:59;;;;;;;;;;;;;;;;;;1077519;27;19960;-74
2024/04/13 00:31:30;;;;;;;;;;;;;;;;;;1077449;27;19969;-74
2024/04/13 00:32:00;;;;;;;;;;;;;;;;;;1084914;27;19938;-74
2024/04/13 00:32:31;;;;;;;;;;;;;;;;;;1084215;27;20363;-74
2024/04/13 00:33:01;;;;;;;;;;;;;;;;;;1083899;27;20330;-74
2024/04/13 00:33:31;;;;;;;;;;;;;;;;;;1077154;27;19972;-74
2024/04/13 00:34:01;;;;;;;;;;;;;;;;;;1084026;27;20013;-74
2024/04/13 00:34:34;;;;;;;;;;;;;;;;;;1091020;27;20411;-74
2024/04/13 00:35:05;;;;;;;;;;;;;;;;;;1094524;27;20078;-74
2024/04/13 00:35:35;;;;;;;;;;;;;;;;;;1093433;27;20274;-74
2024/04/13 00:36:05;;;;;;;;;;;;;;;;;;1094852;27;19959;-74
2024/04/13 00:36:36;;;;;;;;;;;;;;;;;;1094282;26;19930;-74
2024/04/13 00:37:06;;;;;;;;;;;;;;;;;;1094387;26;20355;-74
2024/04/13 00:37:36;;;;;;;;;;;;;;;;;;1095066;26;19931;-74
2024/04/13 00:38:06;;;;;;;;;;;;;;;;;;1094785;27;19943;-74
2024/04/13 00:38:37;;;;;;;;;;;;;;;;;;1094933;27;19971;-74
2024/04/13 00:39:08;;;;;;;;;;;;;;;;;;1092126;27;19931;-74
2024/04/13 00:39:38;;;;;;;;;;;;;;;;;;1091056;27;19939;-74
2024/04/13 00:40:09;;;;;;;;;;;;;;;;;;1097697;27;20460;-73
2024/04/13 00:40:40;;;;;;;;;;;;;;;;;;1084947;27;20019;-74
2024/04/13 00:41:12;;;;;;;;;;;;;;;;;;1084027;27;19960;-74
2024/04/13 00:41:42;;;;;;;;;;;;;;;;;;1088525;27;19931;-74
2024/04/13 00:42:14;;;;;;;;;;;;;;;;;;1095197;26;19930;-74
2024/04/13 00:42:45;;;;;;;;;;;;;;;;;;1092429;27;19975;-74
2024/04/13 00:43:15;;;;;;;;;;;;;;;;;;1094060;27;19937;-74
2024/04/13 00:43:48;;;;;;;;;;;;;;;;;;1094117;27;19938;-74
2024/04/13 00:44:18;;;;;;;;;;;;;;;;;;1094206;27;20062;-74
2024/04/13 00:45:01;;;;;;;;;;;;;;;;;;1094788;27;20001;-74
2024/04/13 00:45:42;;;;;;;;;;;;;;;;;;1094827;27;19963;-74
2024/04/13 00:46:16;;;;;;;;;;;;;;;;;;1089452;27;19936;-73
2024/04/13 00:46:47;;;;;;;;;;;;;;;;;;1087878;27;20006;-73
2024/04/13 00:47:18;;;;;;;;;;;;;;;;;;1083415;27;20395;-74
2024/04/13 00:47:53;;;;;;;;;;;;;;;;;;1078026;27;20007;-74
2024/04/13 00:48:24;;;;;;;;;;;;;;;;;;1078499;27;19939;-74
2024/04/13 00:48:54;;;;;;;;;;;;;;;;;;1085338;27;19939;-74
2024/04/13 00:49:26;;;;;;;;;;;;;;;;;;1079579;27;19987;-74
2024/04/13 00:49:56;;;;;;;;;;;;;;;;;;1084706;27;19943;-74
2024/04/13 00:50:30;;;;;;;;;;;;;;;;;;1094882;27;20326;-74
2024/04/13 00:51:01;;;;;;;;;;;;;;;;;;1094064;27;20003;-74
2024/04/13 00:51:31;;;;;;;;;;;;;;;;;;1093918;26;19972;-74
2024/04/13 00:52:02;;;;;;;;;;;;;;;;;;1092996;27;20001;-75
2024/04/13 00:52:32;;;;;;;;;;;;;;;;;;1094108;26;19937;-75
2024/04/13 00:53:02;;;;;;;;;;;;;;;;;;1095163;27;19931;-74
2024/04/13 00:53:33;;;;;;;;;;;;;;;;;;1094341;26;19977;-74
2024/04/13 00:54:03;;;;;;;;;;;;;;;;;;1093892;27;20011;-74
2024/04/13 00:54:34;;;;;;;;;;;;;;;;;;1094716;27;19931;-74
2024/04/13 00:55:04;;;;;;;;;;;;;;;;;;1094475;27;19946;-74
2024/04/13 00:55:34;;;;;;;;;;;;;;;;;;1094581;27;19935;-74
2024/04/13 00:56:06;;;;;;;;;;;;;;;;;;1099385;26;19938;-74
2024/04/13 00:56:40;;;;;;;;;;;;;;;;;;1100698;26;19944;-74
2024/04/13 00:57:10;;;;;;;;;;;;;;;;;;1099917;26;20012;-74
2024/04/13 00:57:40;;;;;;;;;;;;;;;;;;1101158;26;19971;-74
2024/04/13 00:58:11;;;;;;;;;;;;;;;;;;1094391;27;19943;-74
2024/04/13 00:58:41;;;;;;;;;;;;;;;;;;1094707;27;19935;-74
2024/04/13 00:59:11;;;;;;;;;;;;;;;;;;1087728;27;20010;-74
2024/04/13 00:59:41;;;;;;;;;;;;;;;;;;1092845;27;20396;-74
2024/04/13 01:00:12;;;;;;;;;;;;;;;;;;1087060;27;19931;-75
2024/04/13 01:00:42;;;;;;;;;;;;;;;;;;1084347;27;19932;-74
2024/04/13 01:01:12;;;;;;;;;;;;;;;;;;1077157;27;19932;-74
2024/04/13 01:01:44;;;;;;;;;;;;;;;;;;1077290;27;19960;-74
2024/04/13 01:02:16;;;;;;;;;;;;;;;;;;1077288;27;19932;-74
2024/04/13 01:02:46;;;;;;;;;;;;;;;;;;1076927;27;20471;-74
2024/04/13 01:03:17;;;;;;;;;;;;;;;;;;1077943;27;19955;-74
2024/04/13 01:03:47;;;;;;;;;;;;;;;;;;1078723;27;19944;-74
2024/04/13 01:04:18;;;;;;;;;;;;;;;;;;1086488;27;21997;-74
2024/04/13 01:04:51;;;;;;;;;;;;;;;;;;1087244;27;19931;-74
2024/04/13 01:05:21;;;;;;;;;;;;;;;;;;1082112;27;20390;-74
2024/04/13 01:05:51;;;;;;;;;;;;;;;;;;1080042;27;20030;-74
2024/04/13 01:06:22;;;;;;;;;;;;;;;;;;1084115;27;19938;-74
2024/04/13 01:06:52;;;;;;;;;;;;;;;;;;1083871;27;19935;-74
2024/04/13 01:07:24;;;;;;;;;;;;;;;;;;1087761;27;19939;-74
2024/04/13 01:07:54;;;;;;;;;;;;;;;;;;1090750;27;20001;-74
2024/04/13 01:08:27;;;;;;;;;;;;;;;;;;1084422;27;20006;-74
2024/04/13 01:08:59;;;;;;;;;;;;;;;;;;1090973;27;20005;-74
2024/04/13 01:09:30;;;;;;;;;;;;;;;;;;1089863;27;20440;-74
2024/04/13 01:10:00;;;;;;;;;;;;;;;;;;1088678;27;20014;-74
2024/04/13 01:10:30;;;;;;;;;;;;;;;;;;1087614;27;19959;-74
2024/04/13 01:11:03;;;;;;;;;;;;;;;;;;1086681;27;19980;-74
2024/04/13 01:11:38;;;;;;;;;;;;;;;;;;1090339;27;19943;-74
2024/04/13 01:12:09;;;;;;;;;;;;;;;;;;1083861;27;20003;-74
2024/04/13 01:12:43;;;;;;;;;;;;;;;;;;1084123;27;19980;-74
2024/04/13 01:13:13;;;;;;;;;;;;;;;;;;1078226;27;19932;-74
2024/04/13 01:13:43;;;;;;;;;;;;;;;;;;1081775;27;19939;-74
2024/04/13 01:14:14;;;;;;;;;;;;;;;;;;1087766;27;19955;-72
2024/04/13 01:14:44;;;;;;;;;;;;;;;;;;1093573;27;19937;-72
2024/04/13 01:15:14;;;;;;;;;;;;;;;;;;1090545;27;19939;-72
2024/04/13 01:15:44;;;;;;;;;;;;;;;;;;1090581;27;19977;-72
2024/04/13 01:16:15;;;;;;;;;;;;;;;;;;1090963;27;19990;-72
2024/04/13 01:16:45;;;;;;;;;;;;;;;;;;1090750;27;19938;-73
2024/04/13 01:17:15;;;;;;;;;;;;;;;;;;1090188;27;20434;-73
2024/04/13 01:17:48;;;;;;;;;;;;;;;;;;1090590;27;19934;-73
2024/04/13 01:18:18;;;;;;;;;;;;;;;;;;1089525;27;20473;-73
2024/04/13 01:18:49;;;;;;;;;;;;;;;;;;1090225;27;19979;-74
2024/04/13 01:19:19;;;;;;;;;;;;;;;;;;1085755;27;20418;-74
2024/04/13 01:19:49;;;;;;;;;;;;;;;;;;1087162;27;19931;-72
2024/04/13 01:20:19;;;;;;;;;;;;;;;;;;1093385;27;19950;-73
2024/04/13 01:20:49;;;;;;;;;;;;;;;;;;1087501;27;19944;-73
2024/04/13 01:21:20;;;;;;;;;;;;;;;;;;1086890;27;20418;-73
2024/04/13 01:21:50;;;;;;;;;;;;;;;;;;1086631;27;20008;-73
2024/04/13 01:22:21;;;;;;;;;;;;;;;;;;1083694;27;19938;-73
2024/04/13 01:22:51;;;;;;;;;;;;;;;;;;1077244;27;19939;-73
2024/04/13 01:23:22;;;;;;;;;;;;;;;;;;1077077;27;19933;-73
2024/04/13 01:23:52;;;;;;;;;;;;;;;;;;1097282;21;19960;-73
2024/04/13 01:24:22;;;;;;;;;;;;;;;;;;1100988;26;19930;-73
2024/04/13 01:24:53;;;;;;;;;;;;;;;;;;1103529;26;19930;-72
2024/04/13 01:25:23;;;;;;;;;;;;;;;;;;1100370;26;20009;-72
2024/04/13 01:25:53;;;;;;;;;;;;;;;;;;1100922;26;20378;-72
2024/04/13 01:26:24;;;;;;;;;;;;;;;;;;1101051;26;20452;-72
2024/04/13 01:26:55;;;;;;;;;;;;;;;;;;1099354;26;20361;-72
2024/04/13 01:27:26;;;;;;;;;;;;;;;;;;1100862;26;19948;-72
2024/04/13 01:27:56;;;;;;;;;;;;;;;;;;1090668;27;20363;-72
2024/04/13 01:28:26;;;;;;;;;;;;;;;;;;1093200;27;20432;-73
2024/04/13 01:28:56;;;;;;;;;;;;;;;;;;1091934;27;20030;-73
2024/04/13 01:29:26;;;;;;;;;;;;;;;;;;1091568;27;20412;-73
2024/04/13 01:29:57;;;;;;;;;;;;;;;;;;1094917;27;19931;-73
2024/04/13 01:30:28;;;;;;;;;;;;;;;;;;1097635;27;19930;-73
2024/04/13 01:30:58;;;;;;;;;;;;;;;;;;1087379;27;19931;-73
2024/04/13 01:31:28;;;;;;;;;;;;;;;;;;1086803;27;19939;-73
2024/04/13 01:31:58;;;;;;;;;;;;;;;;;;1086306;27;19932;-73
2024/04/13 01:32:29;;;;;;;;;;;;;;;;;;1094794;27;19970;-73
2024/04/13 01:32:59;;;;;;;;;;;;;;;;;;1097613;27;20102;-73
2024/04/13 01:33:30;;;;;;;;;;;;;;;;;;1097523;27;20004;-73
2024/04/13 01:34:01;;;;;;;;;;;;;;;;;;1090909;27;19931;-73
2024/04/13 01:34:32;;;;;;;;;;;;;;;;;;1090834;27;19971;-73
2024/04/13 01:35:02;;;;;;;;;;;;;;;;;;1097538;27;20301;-75
2024/04/13 01:35:33;;;;;;;;;;;;;;;;;;1093180;27;19930;-75
2024/04/13 01:36:03;;;;;;;;;;;;;;;;;;1096817;27;20367;-74
2024/04/13 01:36:35;;;;;;;;;;;;;;;;;;1096879;27;19947;-73
2024/04/13 01:37:07;;;;;;;;;;;;;;;;;;1094512;27;19931;-74
2024/04/13 01:37:37;;;;;;;;;;;;;;;;;;1095427;27;20508;-73
2024/04/13 01:38:09;;;;;;;;;;;;;;;;;;1101264;26;19977;-73
2024/04/13 01:38:39;;;;;;;;;;;;;;;;;;1101471;26;19938;-74
2024/04/13 01:39:09;;;;;;;;;;;;;;;;;;1093213;27;19943;-74
2024/04/13 01:39:39;;;;;;;;;;;;;;;;;;1091832;27;19939;-73
2024/04/13 01:40:10;;;;;;;;;;;;;;;;;;1092354;27;19931;-74
2024/04/13 01:40:40;;;;;;;;;;;;;;;;;;1091988;27;19959;-73
2024/04/13 01:41:10;;;;;;;;;;;;;;;;;;1099620;27;19967;-74
2024/04/13 01:41:40;;;;;;;;;;;;;;;;;;1100598;26;20321;-74
2024/04/13 01:42:11;;;;;;;;;;;;;;;;;;1099031;26;20018;-73
2024/04/13 01:42:41;;;;;;;;;;;;;;;;;;1099540;27;19930;-73
2024/04/13 01:43:11;;;;;;;;;;;;;;;;;;1102322;26;20333;-73
2024/04/13 01:43:41;;;;;;;;;;;;;;;;;;1107079;26;19945;-73
2024/04/13 01:44:12;;;;;;;;;;;;;;;;;;1099230;27;19938;-73
2024/04/13 01:44:42;;;;;;;;;;;;;;;;;;1098849;27;19951;-73
2024/04/13 01:45:13;;;;;;;;;;;;;;;;;;1090523;27;19946;-73
2024/04/13 01:45:44;;;;;;;;;;;;;;;;;;1090672;27;19939;-73
2024/04/13 01:46:14;;;;;;;;;;;;;;;;;;1091140;27;20394;-74
2024/04/13 01:46:45;;;;;;;;;;;;;;;;;;1091378;27;19994;-73
2024/04/13 01:47:17;;;;;;;;;;;;;;;;;;1091238;27;19938;-73
2024/04/13 01:47:47;;;;;;;;;;;;;;;;;;1098086;27;19930;-74
2024/04/13 01:48:20;;;;;;;;;;;;;;;;;;1098594;27;20045;-73
2024/04/13 01:48:51;;;;;;;;;;;;;;;;;;1097406;27;20452;-73
2024/04/13 01:49:21;;;;;;;;;;;;;;;;;;1098293;26;19930;-73
2024/04/13 01:49:51;;;;;;;;;;;;;;;;;;1097770;27;20374;-73
2024/04/13 01:50:22;;;;;;;;;;;;;;;;;;1094529;27;19985;-73
2024/04/13 01:50:52;;;;;;;;;;;;;;;;;;1092365;27;19942;-73
2024/04/13 01:51:23;;;;;;;;;;;;;;;;;;1087592;27;19943;-73
2024/04/13 01:51:53;;;;;;;;;;;;;;;;;;1093780;27;19943;-73
2024/04/13 01:52:24;;;;;;;;;;;;;;;;;;1097894;27;19939;-73
2024/04/13 01:52:54;;;;;;;;;;;;;;;;;;1093399;27;19937;-73
2024/04/13 01:53:25;;;;;;;;;;;;;;;;;;1100645;26;20001;-73
2024/04/13 01:53:56;;;;;;;;;;;;;;;;;;1102857;21;20050;-75
2024/04/13 01:54:26;;;;;;;;;;;;;;;;;;1100160;26;19945;-76
2024/04/13 01:54:56;;;;;;;;;;;;;;;;;;1101891;26;19970;-77
2024/04/13 01:55:26;;;;;;;;;;;;;;;;;;1101694;26;19937;-76
2024/04/13 01:55:56;;;;;;;;;;;;;;;;;;1095935;27;19930;-76
2024/04/13 01:56:27;;;;;;;;;;;;;;;;;;1098209;26;20409;-76
2024/04/13 01:56:57;;;;;;;;;;;;;;;;;;1098808;27;20374;-77
2024/04/13 01:57:28;;;;;;;;;;;;;;;;;;1105052;26;20409;-76
2024/04/13 01:57:58;;;;;;;;;;;;;;;;;;1097479;26;20432;-76
2024/04/13 01:58:29;;;;;;;;;;;;;;;;;;1098164;26;19930;-76
2024/04/13 01:59:00;;;;;;;;;;;;;;;;;;1097387;26;19942;-76
2024/04/13 01:59:30;;;;;;;;;;;;;;;;;;1098395;26;19937;-76
2024/04/13 02:00:00;;;;;;;;;;;;;;;;;;1102009;26;19941;-76
2024/04/13 02:00:31;;;;;;;;;;;;;;;;;;1097183;27;19931;-76
2024/04/13 02:01:02;;;;;;;;;;;;;;;;;;1102413;26;19937;-77
2024/04/13 02:01:33;;;;;;;;;;;;;;;;;;1101950;26;19954;-76
2024/04/13 02:02:03;;;;;;;;;;;;;;;;;;1100749;26;19976;-76
2024/04/13 02:02:33;;;;;;;;;;;;;;;;;;1097629;26;19954;-76
2024/04/13 02:03:04;;;;;;;;;;;;;;;;;;1091459;27;19963;-76
2024/04/13 02:03:34;;;;;;;;;;;;;;;;;;1085686;27;20388;-77
2024/04/13 02:04:04;;;;;;;;;;;;;;;;;;1094666;27;19978;-76
2024/04/13 02:04:35;;;;;;;;;;;;;;;;;;1094893;27;20037;-76
2024/04/13 02:05:06;;;;;;;;;;;;;;;;;;1089170;27;19943;-77
2024/04/13 02:05:36;;;;;;;;;;;;;;;;;;1087546;27;19931;-77
2024/04/13 02:06:09;;;;;;;;;;;;;;;;;;1086622;27;20279;-77
2024/04/13 02:06:39;;;;;;;;;;;;;;;;;;1086123;27;19932;-76
2024/04/13 02:07:10;;;;;;;;;;;;;;;;;;1089609;27;19938;-76
2024/04/13 02:07:40;;;;;;;;;;;;;;;;;;1094929;26;19939;-76
2024/04/13 02:08:10;;;;;;;;;;;;;;;;;;1094028;26;19967;-76
2024/04/13 02:08:40;;;;;;;;;;;;;;;;;;1094534;27;19980;-76
2024/04/13 02:09:13;;;;;;;;;;;;;;;;;;1090379;27;20403;-76
2024/04/13 02:09:43;;;;;;;;;;;;;;;;;;1093114;27;19939;-77
2024/04/13 02:10:14;;;;;;;;;;;;;;;;;;1091070;27;19967;-76
2024/04/13 02:10:45;;;;;;;;;;;;;;;;;;1091192;27;20321;-76
2024/04/13 02:11:16;;;;;;;;;;;;;;;;;;1098889;27;19934;-76
2024/04/13 02:11:46;;;;;;;;;;;;;;;;;;1092563;27;19931;-76
2024/04/13 02:12:17;;;;;;;;;;;;;;;;;;1094858;27;19937;-76
2024/04/13 02:12:47;;;;;;;;;;;;;;;;;;1092241;26;19969;-76
2024/04/13 02:13:17;;;;;;;;;;;;;;;;;;1095107;27;19931;-76
2024/04/13 02:13:47;;;;;;;;;;;;;;;;;;1101179;26;20385;-76
2024/04/13 02:14:18;;;;;;;;;;;;;;;;;;1101702;26;20004;-77
2024/04/13 02:14:48;;;;;;;;;;;;;;;;;;1097837;27;19942;-77
2024/04/13 02:15:18;;;;;;;;;;;;;;;;;;1098185;27;20008;-77
2024/04/13 02:15:50;;;;;;;;;;;;;;;;;;1090157;27;19931;-77
2024/04/13 02:16:20;;;;;;;;;;;;;;;;;;1089389;27;19931;-77
2024/04/13 02:16:50;;;;;;;;;;;;;;;;;;1093810;26;20377;-76
2024/04/13 02:17:20;;;;;;;;;;;;;;;;;;1093945;26;20365;-76
2024/04/13 02:17:51;;;;;;;;;;;;;;;;;;1102524;26;19970;-76
2024/04/13 02:18:21;;;;;;;;;;;;;;;;;;1101670;26;20045;-77
2024/04/13 02:18:52;;;;;;;;;;;;;;;;;;1095740;27;19931;-77
2024/04/13 02:19:22;;;;;;;;;;;;;;;;;;1104038;26;20007;-77
2024/04/13 02:19:52;;;;;;;;;;;;;;;;;;1099091;26;19931;-77
2024/04/13 02:20:22;;;;;;;;;;;;;;;;;;1102594;26;19934;-77
2024/04/13 02:20:53;;;;;;;;;;;;;;;;;;1094799;26;19939;-77
2024/04/13 02:21:24;;;;;;;;;;;;;;;;;;1094721;27;19931;-77
2024/04/13 02:21:54;;;;;;;;;;;;;;;;;;1097560;26;19930;-76
2024/04/13 02:22:25;;;;;;;;;;;;;;;;;;1096131;26;19970;-77
2024/04/13 02:22:56;;;;;;;;;;;;;;;;;;1106255;26;19950;-79
2024/04/13 02:23:26;;;;;;;;;;;;;;;;;;1105369;26;19945;-77
2024/04/13 02:23:56;;;;;;;;;;;;;;;;;;1104258;26;19938;-77
2024/04/13 02:24:27;;;;;;;;;;;;;;;;;;1095161;27;19935;-77
2024/04/13 02:24:58;;;;;;;;;;;;;;;;;;1095653;27;19966;-77
2024/04/13 02:25:30;;;;;;;;;;;;;;;;;;1098169;26;19942;-77
2024/04/13 02:26:01;;;;;;;;;;;;;;;;;;1101913;26;19939;-77
2024/04/13 02:26:34;;;;;;;;;;;;;;;;;;1101194;26;19959;-76
2024/04/13 02:27:04;;;;;;;;;;;;;;;;;;1101464;26;19937;-76
2024/04/13 02:27:34;;;;;;;;;;;;;;;;;;1101108;26;20014;-76
2024/04/13 02:28:05;;;;;;;;;;;;;;;;;;1102585;26;19970;-76
2024/04/13 02:28:35;;;;;;;;;;;;;;;;;;1094632;27;19937;-76
2024/04/13 02:29:06;;;;;;;;;;;;;;;;;;1096938;27;19938;-77
2024/04/13 02:29:38;;;;;;;;;;;;;;;;;;1099425;26;19978;-77
2024/04/13 02:30:09;;;;;;;;;;;;;;;;;;1091330;27;19942;-76
2024/04/13 02:30:39;;;;;;;;;;;;;;;;;;1096814;27;19930;-76
2024/04/13 02:31:09;;;;;;;;;;;;;;;;;;1092177;27;19931;-76
2024/04/13 02:31:42;;;;;;;;;;;;;;;;;;1097342;27;19937;-77
2024/04/13 02:32:12;;;;;;;;;;;;;;;;;;1093415;27;20006;-76
2024/04/13 02:32:42;;;;;;;;;;;;;;;;;;1095202;27;20470;-76
2024/04/13 02:33:13;;;;;;;;;;;;;;;;;;1103308;26;20440;-77
2024/04/13 02:33:43;;;;;;;;;;;;;;;;;;1102489;26;19938;-77
2024/04/13 02:34:13;;;;;;;;;;;;;;;;;;1100707;26;20382;-77
2024/04/13 02:34:44;;;;;;;;;;;;;;;;;;1101853;26;20347;-77
2024/04/13 02:35:14;;;;;;;;;;;;;;;;;;1093267;26;20135;-77
2024/04/13 02:35:44;;;;;;;;;;;;;;;;;;1094439;27;19938;-77
2024/04/13 02:36:15;;;;;;;;;;;;;;;;;;1098601;26;19930;-77
2024/04/13 02:36:46;;;;;;;;;;;;;;;;;;1099563;27;19951;-77
2024/04/13 02:37:17;;;;;;;;;;;;;;;;;;1098976;27;20326;-77
2024/04/13 02:37:47;;;;;;;;;;;;;;;;;;1092405;27;19938;-77
2024/04/13 02:38:17;;;;;;;;;;;;;;;;;;1096935;27;19930;-77
2024/04/13 02:38:47;;;;;;;;;;;;;;;;;;1097032;27;20288;-77
2024/04/13 02:39:18;;;;;;;;;;;;;;;;;;1098056;27;19930;-78
2024/04/13 02:39:48;;;;;;;;;;;;;;;;;;1102304;26;19937;-78
2024/04/13 02:40:23;;;;;;;;;;;;;;;;;;1099030;26;19934;-79
2024/04/13 02:40:53;;;;;;;;;;;;;;;;;;1097056;26;19938;-78
2024/04/13 02:41:23;;;;;;;;;;;;;;;;;;1095788;27;20274;-78
2024/04/13 02:41:54;;;;;;;;;;;;;;;;;;1098026;26;20290;-78
2024/04/13 02:42:24;;;;;;;;;;;;;;;;;;1098297;26;19935;-78
2024/04/13 02:42:54;;;;;;;;;;;;;;;;;;1103357;26;20000;-78
2024/04/13 02:43:24;;;;;;;;;;;;;;;;;;1101139;26;20004;-78
2024/04/13 02:43:55;;;;;;;;;;;;;;;;;;1102806;26;19937;-78
2024/04/13 02:44:25;;;;;;;;;;;;;;;;;;1096688;26;20007;-78
2024/04/13 02:44:55;;;;;;;;;;;;;;;;;;1094858;26;20414;-78
2024/04/13 02:45:25;;;;;;;;;;;;;;;;;;1094088;26;19947;-78
2024/04/13 02:45:56;;;;;;;;;;;;;;;;;;1098098;27;19931;-78
2024/04/13 02:46:26;;;;;;;;;;;;;;;;;;1094205;27;19987;-78
2024/04/13 02:46:56;;;;;;;;;;;;;;;;;;1101784;26;19939;-78
2024/04/13 02:47:26;;;;;;;;;;;;;;;;;;1101064;26;19930;-78
2024/04/13 02:47:56;;;;;;;;;;;;;;;;;;1102904;26;19935;-78
2024/04/13 02:48:27;;;;;;;;;;;;;;;;;;1105982;26;19934;-78
2024/04/13 02:48:57;;;;;;;;;;;;;;;;;;1099151;27;19934;-78
2024/04/13 02:49:27;;;;;;;;;;;;;;;;;;1095538;26;19930;-78
2024/04/13 02:49:58;;;;;;;;;;;;;;;;;;1098062;26;19986;-77
2024/04/13 02:50:29;;;;;;;;;;;;;;;;;;1098733;27;19939;-77
2024/04/13 02:50:59;;;;;;;;;;;;;;;;;;1097022;27;19930;-77
2024/04/13 02:51:30;;;;;;;;;;;;;;;;;;1097484;27;19937;-78
2024/04/13 02:52:00;;;;;;;;;;;;;;;;;;1095802;26;19938;-78
2024/04/13 02:52:30;;;;;;;;;;;;;;;;;;1097334;27;20283;-78
2024/04/13 02:53:00;;;;;;;;;;;;;;;;;;1096720;27;20373;-78
2024/04/13 02:53:30;;;;;;;;;;;;;;;;;;1096183;26;22557;-78
2024/04/13 02:54:02;;;;;;;;;;;;;;;;;;1096067;27;19931;-78
2024/04/13 02:54:33;;;;;;;;;;;;;;;;;;1095295;27;19931;-78
2024/04/13 02:55:04;;;;;;;;;;;;;;;;;;1088950;27;20422;-78
2024/04/13 02:55:34;;;;;;;;;;;;;;;;;;1091375;27;19931;-78
2024/04/13 02:56:04;;;;;;;;;;;;;;;;;;1089302;27;19931;-78
2024/04/13 02:56:34;;;;;;;;;;;;;;;;;;1090629;27;19947;-78
2024/04/13 02:57:05;;;;;;;;;;;;;;;;;;1083851;27;19931;-79
2024/04/13 02:57:35;;;;;;;;;;;;;;;;;;1082664;27;19932;-78
2024/04/13 02:58:05;;;;;;;;;;;;;;;;;;1084219;27;20296;-78
2024/04/13 02:58:37;;;;;;;;;;;;;;;;;;1084961;27;20434;-78
2024/04/13 02:59:07;;;;;;;;;;;;;;;;;;1090812;27;19941;-78
2024/04/13 02:59:38;;;;;;;;;;;;;;;;;;1087566;27;19938;-78
2024/04/13 03:00:08;;;;;;;;;;;;;;;;;;1085292;27;20428;-78
2024/04/13 03:00:39;;;;;;;;;;;;;;;;;;1086973;27;19931;-78
2024/04/13 03:01:09;;;;;;;;;;;;;;;;;;1081501;27;19955;-78
2024/04/13 03:01:40;;;;;;;;;;;;;;;;;;1082732;27;19935;-78
2024/04/13 03:02:12;;;;;;;;;;;;;;;;;;1085154;27;20326;-78
2024/04/13 03:02:42;;;;;;;;;;;;;;;;;;1080091;27;19943;-78
2024/04/13 03:03:12;;;;;;;;;;;;;;;;;;1085361;27;19959;-78
2024/04/13 03:03:43;;;;;;;;;;;;;;;;;;1090521;27;19959;-78
2024/04/13 03:04:13;;;;;;;;;;;;;;;;;;1082948;27;19988;-78
2024/04/13 03:04:44;;;;;;;;;;;;;;;;;;1088972;27;19946;-78
2024/04/13 03:05:14;;;;;;;;;;;;;;;;;;1086348;27;19963;-78
2024/04/13 03:05:44;;;;;;;;;;;;;;;;;;1073433;27;19961;-78
2024/04/13 03:06:14;;;;;;;;;;;;;;;;;;1081272;27;19943;-78
2024/04/13 03:06:45;;;;;;;;;;;;;;;;;;1085288;27;19931;-78
2024/04/13 03:07:15;;;;;;;;;;;;;;;;;;1087310;27;19974;-78
2024/04/13 03:07:45;;;;;;;;;;;;;;;;;;1091803;27;19932;-78
2024/04/13 03:08:15;;;;;;;;;;;;;;;;;;1092884;27;19934;-78
2024/04/13 03:08:48;;;;;;;;;;;;;;;;;;1093325;27;19935;-78
2024/04/13 03:09:20;;;;;;;;;;;;;;;;;;1093541;27;20029;-78
2024/04/13 03:09:50;;;;;;;;;;;;;;;;;;1093926;27;20044;-78
2024/04/13 03:10:21;;;;;;;;;;;;;;;;;;1095468;27;19934;-78
2024/04/13 03:10:51;;;;;;;;;;;;;;;;;;1097183;26;19938;-78
2024/04/13 03:11:21;;;;;;;;;;;;;;;;;;1098805;26;19930;-78
2024/04/13 03:11:52;;;;;;;;;;;;;;;;;;1089890;27;20039;-78
2024/04/13 03:12:22;;;;;;;;;;;;;;;;;;1092626;27;19934;-78
2024/04/13 03:12:52;;;;;;;;;;;;;;;;;;1085872;27;19958;-78
2024/04/13 03:13:22;;;;;;;;;;;;;;;;;;1092090;27;19938;-78
2024/04/13 03:13:53;;;;;;;;;;;;;;;;;;1092551;27;20041;-78
2024/04/13 03:14:23;;;;;;;;;;;;;;;;;;1091692;27;20371;-78
2024/04/13 03:14:53;;;;;;;;;;;;;;;;;;1089938;27;19963;-78
2024/04/13 03:15:23;;;;;;;;;;;;;;;;;;1087968;27;20000;-78
2024/04/13 03:15:53;;;;;;;;;;;;;;;;;;1087112;27;19971;-78
2024/04/13 03:16:24;;;;;;;;;;;;;;;;;;1093659;26;19931;-78
2024/04/13 03:16:54;;;;;;;;;;;;;;;;;;1093974;27;19966;-78
2024/04/13 03:17:24;;;;;;;;;;;;;;;;;;1102957;26;19966;-78
2024/04/13 03:17:54;;;;;;;;;;;;;;;;;;1097436;26;19959;-78
2024/04/13 03:18:26;;;;;;;;;;;;;;;;;;1092322;27;20085;-78
2024/04/13 03:18:56;;;;;;;;;;;;;;;;;;1087414;27;19939;-78
2024/04/13 03:19:26;;;;;;;;;;;;;;;;;;1084050;27;19932;-78
2024/04/13 03:19:56;;;;;;;;;;;;;;;;;;1086101;27;19939;-78
2024/04/13 03:20:26;;;;;;;;;;;;;;;;;;1086023;27;19946;-78
2024/04/13 03:20:57;;;;;;;;;;;;;;;;;;1088401;27;19939;-78
2024/04/13 03:21:29;;;;;;;;;;;;;;;;;;1085260;27;19938;-78
2024/04/13 03:21:59;;;;;;;;;;;;;;;;;;1091052;27;19935;-78
2024/04/13 03:22:30;;;;;;;;;;;;;;;;;;1086421;27;19983;-78
2024/04/13 03:23:00;;;;;;;;;;;;;;;;;;1084927;27;20534;-78
2024/04/13 03:23:30;;;;;;;;;;;;;;;;;;1078072;27;20450;-78
2024/04/13 03:24:01;;;;;;;;;;;;;;;;;;1087028;27;20071;-78
2024/04/13 03:24:33;;;;;;;;;;;;;;;;;;1080850;27;19932;-78
2024/04/13 03:25:05;;;;;;;;;;;;;;;;;;1087624;27;20595;-78
2024/04/13 03:25:36;;;;;;;;;;;;;;;;;;1083413;27;20430;-78
2024/04/13 03:26:06;;;;;;;;;;;;;;;;;;1085045;27;19951;-78
2024/04/13 03:26:36;;;;;;;;;;;;;;;;;;1084471;27;19940;-78
2024/04/13 03:27:06;;;;;;;;;;;;;;;;;;1088507;27;19947;-78
2024/04/13 03:27:37;;;;;;;;;;;;;;;;;;1091000;27;19938;-78
2024/04/13 03:28:08;;;;;;;;;;;;;;;;;;1091861;27;19946;-77
2024/04/13 03:28:38;;;;;;;;;;;;;;;;;;1091022;26;19935;-77
2024/04/13 03:29:08;;;;;;;;;;;;;;;;;;1088797;27;20451;-78
2024/04/13 03:29:39;;;;;;;;;;;;;;;;;;1093014;27;20520;-78